Mc Calla, Alabama
Current Conditions -  °F | °C
As of 3:53 PM on Thursday 23 Oct 2014 (Local Time) from KEET Reporting Station
Clear Clear  
Wind Chill: 70°   Ceiling: Unl
Heat Index: 70°   Visibility: 10mi
Dew Point: 40°   Wind: 3mph
Humidity: 33%   Direction: NA
Pressure: 30.05"   Gusts: NA
Location:  33.3452°N, 87.0035°W
Report Text: KEET 232053Z AUTO VRB03KT 10SM CLR 21/04 A3005 RMK AO2 SLP173 T02110044 56019
Loading
Personal Weather Stations






























Interactive Weather Map
Tropical Storm Tracking
New forecast layout! Learn more

10-Day Weather Forecast

Advertisements
Track Severe Weather on mobile